Terminal Aerodrome Forecast
Issued by NWS North Platte, NE

Home | Current Version | Previous Version | Graphics & Text | Print | Product List | Glossary On
Versions: 1 2 3 4 5 6 7 8 9 10 11 12 13 14 15 16
000
FTUS43 KLBF 271700
TAFVTN
TAF
KVTN 271738Z 2718/2818 20013G19KT P6SM SKC
     FM272000 18010G18KT P6SM SCT100
     FM280000 17010KT P6SM SCT060
     FM281000 19007KT P6SM SCT025 BKN050
     FM281600 21009KT P6SM BKN050=

USA.gov is the U.S. government's official web portal to all federal, state and local government web resources and services.